createdAt,value
2019-01-08T00:01:43.583Z,24.18
2019-01-08T00:04:11.379Z,23.90
2019-01-08T00:06:40.099Z,19.80
2019-01-08T00:09:07.836Z,23.30
2019-01-08T00:11:35.784Z,22.15
2019-01-08T00:14:03.538Z,27.15
2019-01-08T00:16:31.564Z,24.47
2019-01-08T00:18:59.171Z,24.00
2019-01-08T00:21:26.793Z,25.50
2019-01-08T00:23:54.663Z,17.92
2019-01-08T00:26:22.945Z,23.52
2019-01-08T00:28:52.029Z,19.87
2019-01-08T00:31:20.456Z,25.37
2019-01-08T00:33:52.267Z,22.87
2019-01-08T00:36:20.194Z,18.42
2019-01-08T00:38:48.119Z,24.75
2019-01-08T00:41:16.018Z,24.85
2019-01-08T00:43:43.705Z,29.87
2019-01-08T00:46:11.648Z,22.65
2019-01-08T00:48:39.405Z,24.40
2019-01-08T00:51:07.514Z,26.23
2019-01-08T00:53:38.105Z,21.45
2019-01-08T00:56:09.774Z,28.83
2019-01-08T00:58:37.579Z,23.25
2019-01-08T01:01:05.463Z,22.17
2019-01-08T01:03:33.204Z,22.02
2019-01-08T01:06:01.130Z,20.17
2019-01-08T01:08:29.111Z,23.30
2019-01-08T01:10:56.771Z,20.60
2019-01-08T01:13:25.058Z,24.18
2019-01-08T01:15:52.604Z,25.77
2019-01-08T01:18:20.485Z,24.63
2019-01-08T01:20:49.074Z,22.73
2019-01-08T01:23:17.023Z,25.45
2019-01-08T01:25:44.816Z,28.42
2019-01-08T01:28:12.830Z,23.02
2019-01-08T01:30:40.623Z,24.87
2019-01-08T01:33:08.525Z,25.45
2019-01-08T01:35:37.289Z,27.50
2019-01-08T01:38:04.876Z,20.75
2019-01-08T01:40:32.379Z,20.90
2019-01-08T01:43:00.454Z,21.00
2019-01-08T01:45:29.392Z,18.00
2019-01-08T01:47:57.273Z,22.52
2019-01-08T01:50:25.152Z,24.23
2019-01-08T01:52:53.079Z,32.03
2019-01-08T01:55:20.704Z,19.95
2019-01-08T01:57:48.369Z,20.80
2019-01-08T02:00:16.003Z,26.87
2019-01-08T02:02:43.590Z,27.02
2019-01-08T02:05:11.530Z,25.80
2019-01-08T02:07:39.517Z,20.55
2019-01-08T02:10:07.503Z,22.87
2019-01-08T02:12:35.542Z,22.90
2019-01-08T02:15:04.081Z,29.60
2019-01-08T02:17:31.784Z,27.40
2019-01-08T02:19:59.580Z,27.15
2019-01-08T02:22:27.225Z,23.57
2019-01-08T02:24:54.929Z,22.17
2019-01-08T02:27:22.789Z,25.80
2019-01-08T02:29:50.557Z,27.52
2019-01-08T02:32:18.956Z,27.07
2019-01-08T02:34:46.597Z,28.57
2019-01-08T02:37:17.937Z,17.55
2019-01-08T02:39:45.713Z,22.87
2019-01-08T02:42:14.000Z,28.42
2019-01-08T02:44:41.974Z,26.52
2019-01-08T02:47:09.704Z,23.62
2019-01-08T02:49:37.215Z,24.00
2019-01-08T02:52:05.762Z,24.90
2019-01-08T02:54:33.343Z,28.75
2019-01-08T02:57:01.377Z,23.10
2019-01-08T02:59:29.138Z,25.72
2019-01-08T03:01:56.916Z,28.38
2019-01-08T03:04:24.923Z,28.67
2019-01-08T03:06:52.669Z,25.80
2019-01-08T03:09:20.632Z,29.20
2019-01-08T03:11:48.391Z,29.52
2019-01-08T03:14:16.350Z,26.02
2019-01-08T03:16:44.203Z,26.05
2019-01-08T03:19:13.783Z,25.48
2019-01-08T03:21:43.536Z,29.05
2019-01-08T03:24:11.476Z,24.10
2019-01-08T03:26:39.390Z,23.80
2019-01-08T03:29:07.142Z,26.52
2019-01-08T03:31:35.078Z,26.77
2019-01-08T03:34:03.363Z,27.52
2019-01-08T03:36:31.269Z,34.15
2019-01-08T03:38:59.011Z,28.02
2019-01-08T03:41:26.637Z,28.42
2019-01-08T03:43:54.329Z,26.17
2019-01-08T03:46:23.181Z,26.05
2019-01-08T03:48:50.969Z,33.95
2019-01-08T03:51:18.960Z,25.72
2019-01-08T03:53:46.517Z,27.55
2019-01-08T03:56:14.109Z,25.25
2019-01-08T03:58:42.056Z,30.02
2019-01-08T04:01:10.018Z,26.93
2019-01-08T04:03:37.768Z,24.27
2019-01-08T04:06:05.627Z,28.90
2019-01-08T04:08:33.552Z,32.78
2019-01-08T04:11:01.306Z,30.80
2019-01-08T04:13:29.658Z,28.10
2019-01-08T04:15:57.535Z,28.40
2019-01-08T04:18:25.357Z,26.90
2019-01-08T04:20:53.480Z,27.80
2019-01-08T04:23:21.108Z,22.58
2019-01-08T04:25:48.883Z,25.40
2019-01-08T04:28:16.893Z,23.00
2019-01-08T04:30:46.357Z,31.27
2019-01-08T04:33:14.253Z,25.25
2019-01-08T04:35:42.011Z,25.70
2019-01-08T04:38:09.672Z,32.48
2019-01-08T04:40:37.847Z,24.52
2019-01-08T04:43:05.763Z,30.80
2019-01-08T04:45:33.570Z,25.45
2019-01-08T04:48:01.394Z,22.77
2019-01-08T04:50:29.297Z,20.92
2019-01-08T04:52:57.217Z,29.57
2019-01-08T04:55:25.059Z,25.65
2019-01-08T04:57:53.775Z,20.23
2019-01-08T05:00:21.456Z,22.10
2019-01-08T05:02:50.500Z,29.27
2019-01-08T05:05:18.452Z,25.27
2019-01-08T05:07:46.393Z,22.60
2019-01-08T05:10:14.015Z,30.12
2019-01-08T05:12:41.686Z,24.10
2019-01-08T05:15:09.525Z,34.75
2019-01-08T05:17:37.358Z,29.40
2019-01-08T05:20:06.260Z,35.45
2019-01-08T05:22:34.330Z,34.33
2019-01-08T05:25:02.315Z,33.00
2019-01-08T05:27:30.868Z,35.90
2019-01-08T05:30:07.590Z,28.15
2019-01-08T05:32:28.726Z,28.30
2019-01-08T05:34:56.595Z,24.35
2019-01-08T05:37:27.517Z,28.92
2019-01-08T05:39:55.279Z,31.02
2019-01-08T05:42:23.895Z,32.55
2019-01-08T05:44:51.721Z,32.48
2019-01-08T05:47:19.362Z,30.35
2019-01-08T05:49:47.002Z,36.93
2019-01-08T05:52:15.027Z,31.90
2019-01-08T05:54:42.833Z,28.80
2019-01-08T05:57:10.654Z,32.30
2019-01-08T05:59:38.563Z,33.63
2019-01-08T06:02:06.435Z,36.83
2019-01-08T06:04:35.423Z,30.15
2019-01-08T06:07:03.452Z,34.63
2019-01-08T06:09:31.147Z,30.32
2019-01-08T06:11:59.190Z,34.80
2019-01-08T06:14:26.919Z,37.98
2019-01-08T06:16:54.873Z,46.40
2019-01-08T06:19:22.803Z,32.63
2019-01-08T06:21:51.478Z,34.23
2019-01-08T06:24:19.207Z,43.52
2019-01-08T06:26:47.126Z,36.93
2019-01-08T06:29:15.874Z,39.73
2019-01-08T06:31:43.497Z,35.08
2019-01-08T06:34:11.188Z,34.58
2019-01-08T06:36:38.992Z,44.88
2019-01-08T06:39:07.114Z,33.73
2019-01-08T06:41:35.128Z,37.45
2019-01-08T06:44:03.059Z,41.02
2019-01-08T06:46:31.366Z,47.08
2019-01-08T06:48:59.116Z,43.00
2019-01-08T06:51:26.815Z,56.13
2019-01-08T06:53:54.507Z,49.58
2019-01-08T06:56:22.406Z,45.80
2019-01-08T06:58:50.171Z,46.85
2019-01-08T07:01:18.037Z,50.03
2019-01-08T07:03:46.357Z,43.20
2019-01-08T07:06:16.831Z,51.77
2019-01-08T07:08:47.140Z,63.45
2019-01-08T07:11:14.867Z,52.43
2019-01-08T07:13:43.668Z,51.85
2019-01-08T07:16:11.441Z,54.98
2019-01-08T07:18:39.312Z,43.38
2019-01-08T07:21:07.223Z,47.10
2019-01-08T07:23:34.996Z,51.20
2019-01-08T07:26:02.677Z,44.13
2019-01-08T07:28:30.318Z,49.15
2019-01-08T07:30:58.193Z,63.55
2019-01-08T07:33:29.166Z,55.23
2019-01-08T07:35:57.248Z,50.35
2019-01-08T07:38:25.304Z,49.90
2019-01-08T07:40:52.928Z,48.00
2019-01-08T07:43:21.650Z,47.53
2019-01-08T07:45:49.462Z,51.95
2019-01-08T07:48:17.469Z,51.15
2019-01-08T07:50:45.551Z,53.87
2019-01-08T07:53:13.470Z,46.02
2019-01-08T07:55:41.352Z,53.78
2019-01-08T07:58:09.241Z,47.88
2019-01-08T08:00:36.845Z,48.05
2019-01-08T08:03:05.013Z,47.40
2019-01-08T08:05:32.908Z,38.42
2019-01-08T08:08:00.732Z,36.00
2019-01-08T08:10:28.545Z,35.10
2019-01-08T08:12:56.275Z,41.85
2019-01-08T08:15:24.244Z,45.80
2019-01-08T08:17:51.805Z,52.23
2019-01-08T08:20:22.457Z,43.63
2019-01-08T08:22:50.396Z,40.23
2019-01-08T08:25:18.034Z,35.75
2019-01-08T08:27:45.686Z,25.23
2019-01-08T08:30:13.557Z,23.77
2019-01-08T08:32:41.447Z,19.98
2019-01-08T08:35:10.067Z,15.18
2019-01-08T08:37:37.954Z,22.87
2019-01-08T08:40:06.531Z,24.60
2019-01-08T08:42:34.613Z,17.95
2019-01-08T08:45:04.729Z,18.20
2019-01-08T08:47:32.704Z,18.67
2019-01-08T08:50:01.470Z,15.90
2019-01-08T08:52:29.103Z,23.05
2019-01-08T08:54:57.142Z,18.20
2019-01-08T08:57:24.972Z,20.02
2019-01-08T08:59:52.568Z,15.53
2019-01-08T09:02:21.626Z,18.07
2019-01-08T09:04:50.134Z,14.03
2019-01-08T09:07:20.662Z,17.80
2019-01-08T09:09:48.385Z,12.25
2019-01-08T09:12:16.038Z,16.48
2019-01-08T09:14:43.672Z,14.28
2019-01-08T09:17:11.560Z,17.50
2019-01-08T09:19:39.535Z,19.48
2019-01-08T09:22:07.433Z,16.30
2019-01-08T09:24:35.933Z,18.05
2019-01-08T09:27:03.907Z,15.50
2019-01-08T09:29:31.928Z,19.62
2019-01-08T09:32:00.114Z,19.82
2019-01-08T09:34:27.705Z,20.27
2019-01-08T09:36:55.410Z,20.95
2019-01-08T09:39:23.229Z,17.10
2019-01-08T09:41:51.025Z,20.52
2019-01-08T09:44:18.882Z,21.95
2019-01-08T09:46:46.922Z,21.95
2019-01-08T09:49:15.906Z,19.12
2019-01-08T09:51:43.831Z,18.42
2019-01-08T09:54:11.555Z,16.45
2019-01-08T09:56:40.433Z,16.90
2019-01-08T09:59:08.223Z,15.32
2019-01-08T10:01:36.059Z,17.65
2019-01-08T10:04:03.886Z,19.52
2019-01-08T10:06:31.958Z,17.92
2019-01-08T10:08:59.683Z,20.97
2019-01-08T10:11:27.557Z,16.70
2019-01-08T10:13:55.396Z,17.37
2019-01-08T10:16:23.069Z,16.07
2019-01-08T10:18:50.659Z,17.02
2019-01-08T10:21:18.613Z,18.37
2019-01-08T10:23:46.435Z,18.02
2019-01-08T10:26:14.740Z,16.23
2019-01-08T10:28:42.596Z,20.15
2019-01-08T10:31:10.466Z,24.15
2019-01-08T10:33:38.418Z,19.82
2019-01-08T10:36:06.312Z,16.32
2019-01-08T10:38:34.147Z,22.77
2019-01-08T10:41:01.823Z,20.32
2019-01-08T10:43:29.895Z,16.35
2019-01-08T10:45:57.615Z,16.48
2019-01-08T10:48:25.516Z,16.90
2019-01-08T10:50:53.129Z,16.37
2019-01-08T10:53:20.903Z,16.75
2019-01-08T10:55:48.738Z,16.48
2019-01-08T10:58:16.645Z,23.45
2019-01-08T11:00:44.258Z,20.20
2019-01-08T11:03:11.964Z,15.85
2019-01-08T11:05:39.768Z,17.20
2019-01-08T11:08:07.587Z,17.73
2019-01-08T11:10:35.447Z,19.10
2019-01-08T11:13:03.095Z,18.42
2019-01-08T11:15:30.867Z,22.02
2019-01-08T11:17:58.708Z,19.77
2019-01-08T11:20:26.574Z,18.57
2019-01-08T11:22:55.236Z,19.37
2019-01-08T11:25:23.098Z,18.15
2019-01-08T11:27:51.089Z,18.60
2019-01-08T11:30:18.887Z,19.02
2019-01-08T11:32:46.693Z,19.73
2019-01-08T11:35:14.231Z,19.70
2019-01-08T11:37:42.028Z,19.65
2019-01-08T11:40:09.853Z,16.25
2019-01-08T11:42:37.738Z,21.10
2019-01-08T11:45:09.332Z,17.65
2019-01-08T11:47:37.631Z,22.65
2019-01-08T11:50:09.913Z,19.17
2019-01-08T11:52:37.474Z,21.85
2019-01-08T11:55:05.429Z,21.60
2019-01-08T11:57:33.043Z,21.85
2019-01-08T12:00:00.639Z,16.45
2019-01-08T12:02:29.007Z,16.57
2019-01-08T12:04:58.479Z,23.10
2019-01-08T12:07:31.138Z,17.92
2019-01-08T12:09:56.122Z,20.52
2019-01-08T12:12:24.557Z,18.02
2019-01-08T12:14:52.223Z,19.05
2019-01-08T12:17:20.225Z,17.87
2019-01-08T12:19:49.271Z,20.60
2019-01-08T12:22:20.453Z,19.32
2019-01-08T12:24:48.069Z,20.43
2019-01-08T12:27:15.643Z,17.70
2019-01-08T12:29:46.562Z,18.95
2019-01-08T12:32:14.285Z,15.78
2019-01-08T12:34:42.164Z,19.55
2019-01-08T12:37:10.004Z,15.40
2019-01-08T12:39:37.994Z,18.10
2019-01-08T12:42:05.732Z,21.00
2019-01-08T12:44:33.667Z,18.12
2019-01-08T12:47:01.265Z,16.00
2019-01-08T12:49:29.022Z,18.42
2019-01-08T12:51:56.828Z,14.30
2019-01-08T12:54:24.732Z,21.57
2019-01-08T12:56:52.383Z,14.80
2019-01-08T12:59:20.073Z,13.18
2019-01-08T13:01:47.837Z,14.43
2019-01-08T13:04:16.673Z,15.83
2019-01-08T13:06:44.487Z,14.47
2019-01-08T13:09:12.089Z,17.45
2019-01-08T13:11:39.853Z,16.27
2019-01-08T13:14:07.676Z,13.90
2019-01-08T13:16:35.480Z,12.93
2019-01-08T13:19:03.115Z,15.00
2019-01-08T13:21:30.852Z,16.67
2019-01-08T13:23:58.772Z,13.08
2019-01-08T13:26:26.651Z,9.45
2019-01-08T13:28:54.783Z,18.07
2019-01-08T13:31:23.219Z,10.78
2019-01-08T13:33:51.613Z,14.65
2019-01-08T13:36:19.708Z,11.18
2019-01-08T13:38:47.483Z,10.55
2019-01-08T13:41:15.434Z,7.28
2019-01-08T13:43:44.067Z,9.83
2019-01-08T13:46:12.810Z,6.62
2019-01-08T13:48:40.752Z,7.83
2019-01-08T13:51:09.337Z,8.60
2019-01-08T13:53:36.915Z,8.80
2019-01-08T13:56:05.109Z,22.95
2019-01-08T13:58:32.929Z,9.83
2019-01-08T14:01:00.813Z,9.45
2019-01-08T14:03:28.650Z,18.87
2019-01-08T14:05:56.531Z,19.20
2019-01-08T14:08:24.429Z,16.80
2019-01-08T14:10:56.529Z,22.48
2019-01-08T14:13:22.563Z,32.10
2019-01-08T14:15:50.515Z,28.52
2019-01-08T14:18:18.324Z,35.98
2019-01-08T14:20:46.258Z,31.17
2019-01-08T14:23:22.494Z,24.75
2019-01-08T14:25:50.121Z,37.58
2019-01-08T14:28:18.837Z,29.65
2019-01-08T14:30:46.310Z,32.58
2019-01-08T14:33:14.086Z,33.63
2019-01-08T14:35:42.104Z,35.23
2019-01-08T14:38:09.776Z,32.35
2019-01-08T14:40:37.920Z,24.92
2019-01-08T14:43:13.628Z,36.13
2019-01-08T14:45:35.734Z,30.60
2019-01-08T14:48:06.388Z,27.65
2019-01-08T14:50:34.168Z,26.95
2019-01-08T14:53:03.238Z,33.65
2019-01-08T14:55:31.185Z,29.02
2019-01-08T14:57:58.958Z,34.15
2019-01-08T15:00:26.905Z,26.95
2019-01-08T15:02:54.626Z,35.13
2019-01-08T15:05:22.271Z,39.67
2019-01-08T15:07:49.971Z,40.20
2019-01-08T15:10:17.852Z,36.45
2019-01-08T15:12:45.686Z,34.90
2019-01-08T15:15:13.582Z,29.52
2019-01-08T15:17:41.442Z,33.23
2019-01-08T15:20:10.623Z,32.60
2019-01-08T15:22:39.629Z,32.45
2019-01-08T15:25:07.535Z,38.25
2019-01-08T15:27:35.310Z,30.85
2019-01-08T15:30:04.465Z,39.88
2019-01-08T15:32:32.292Z,35.38
2019-01-08T15:35:00.280Z,39.48
2019-01-08T15:37:27.798Z,46.50
2019-01-08T15:39:55.595Z,39.98
2019-01-08T15:42:23.378Z,40.12
2019-01-08T15:44:51.787Z,40.48
2019-01-08T15:47:19.457Z,31.25
2019-01-08T16:19:22.234Z,67.27
2019-01-08T16:21:49.868Z,89.47
2019-01-08T16:24:18.007Z,87.45
2019-01-08T16:26:45.936Z,77.53
2019-01-08T16:29:13.569Z,85.45
2019-01-08T16:31:43.245Z,79.60
2019-01-08T16:34:10.976Z,86.92
2019-01-08T16:36:39.036Z,86.90
2019-01-08T16:39:07.356Z,83.45
2019-01-08T16:41:38.033Z,100.92
2019-01-08T16:44:05.798Z,84.45
2019-01-08T16:46:34.126Z,72.10
2019-01-08T16:49:02.020Z,71.85
2019-01-08T16:51:30.543Z,74.30
2019-01-08T16:53:58.388Z,62.45
2019-01-08T16:56:27.238Z,66.15
2019-01-08T16:58:55.464Z,86.22
2019-01-08T17:01:23.316Z,71.37
2019-01-08T17:03:51.123Z,75.78
2019-01-08T17:06:18.645Z,75.37
2019-01-08T17:08:46.504Z,82.57
2019-01-08T17:11:14.396Z,74.97
2019-01-08T17:13:43.139Z,66.87
2019-01-08T17:16:10.957Z,55.63
2019-01-08T17:18:38.848Z,55.12
2019-01-08T17:21:08.042Z,58.55
2019-01-08T17:23:36.153Z,51.25
2019-01-08T17:26:04.279Z,50.20
2019-01-08T17:28:31.891Z,56.08
2019-01-08T17:30:59.687Z,54.83
2019-01-08T17:33:34.084Z,64.37
2019-01-08T17:36:00.350Z,62.48
2019-01-08T17:38:28.307Z,59.50
2019-01-08T17:41:02.235Z,67.87
2019-01-08T17:43:33.751Z,83.90
2019-01-08T17:45:59.647Z,85.00
2019-01-08T17:48:27.967Z,81.10
2019-01-08T17:50:55.789Z,80.65
2019-01-08T17:53:23.669Z,81.25
2019-01-08T17:55:51.477Z,71.97
2019-01-08T17:58:39.323Z,65.28
2019-01-08T18:01:12.778Z,68.12
2019-01-08T18:03:42.822Z,67.60
2019-01-08T18:06:10.126Z,81.95
2019-01-08T18:08:39.378Z,73.55
2019-01-08T18:11:10.313Z,93.95
2019-01-08T18:13:38.237Z,85.87
2019-01-08T18:16:06.380Z,71.70
2019-01-08T18:18:34.308Z,74.90
2019-01-08T18:21:01.933Z,80.32
2019-01-08T18:23:29.606Z,82.67
2019-01-08T18:25:57.509Z,80.90
2019-01-08T18:28:25.395Z,79.27
2019-01-08T18:30:53.181Z,71.47
2019-01-08T18:33:21.134Z,83.12
2019-01-08T18:35:48.952Z,78.70
2019-01-08T18:38:17.168Z,83.25
2019-01-08T18:40:45.064Z,71.97
2019-01-08T18:43:14.191Z,75.22
2019-01-08T18:45:43.624Z,70.85
2019-01-08T18:48:11.576Z,70.55
2019-01-08T18:50:39.346Z,75.72
2019-01-08T18:53:06.967Z,74.45
2019-01-08T18:55:34.535Z,82.37
2019-01-08T18:58:02.279Z,75.57
2019-01-08T19:00:30.193Z,76.70
2019-01-08T19:02:58.078Z,87.70
2019-01-08T19:05:25.726Z,89.47
2019-01-08T19:07:53.662Z,76.62
2019-01-08T19:10:22.239Z,86.57
2019-01-08T19:12:50.289Z,77.72
2019-01-08T19:15:17.836Z,74.17
2019-01-08T19:17:45.661Z,65.60
2019-01-08T19:20:14.250Z,73.17
2019-01-08T19:22:42.216Z,70.35
2019-01-08T19:25:15.758Z,63.70
2019-01-08T19:27:43.553Z,70.32
2019-01-08T19:30:11.212Z,71.02
2019-01-08T19:32:39.009Z,68.12
2019-01-08T19:35:07.976Z,64.50
2019-01-08T19:37:37.158Z,61.50
2019-01-08T19:40:05.937Z,56.77
2019-01-08T19:42:34.443Z,59.15
2019-01-08T19:45:02.384Z,64.90
2019-01-08T19:47:32.419Z,57.20
2019-01-08T19:50:00.093Z,63.78
2019-01-08T19:52:30.990Z,57.48
2019-01-08T19:54:58.618Z,59.85
2019-01-08T19:57:26.580Z,67.03
2019-01-08T19:59:54.374Z,66.70
2019-01-08T20:02:22.386Z,66.20
2019-01-08T20:04:50.992Z,62.10
2019-01-08T20:07:18.950Z,65.25
2019-01-08T20:09:47.102Z,80.05
2019-01-08T20:12:14.984Z,73.62
2019-01-08T20:14:42.761Z,86.50
2019-01-08T20:17:10.317Z,70.35
2019-01-08T20:19:38.172Z,82.10
2019-01-08T20:22:05.796Z,84.32
2019-01-08T20:24:33.422Z,83.40
2019-01-08T20:27:04.399Z,70.85
2019-01-08T20:29:31.993Z,81.47
2019-01-08T20:31:59.957Z,76.53
2019-01-08T20:34:27.736Z,73.22
2019-01-08T20:36:57.925Z,75.97
2019-01-08T20:39:25.518Z,65.78
2019-01-08T20:41:53.774Z,63.63
2019-01-08T20:44:24.616Z,71.30
2019-01-08T20:46:53.366Z,61.08
2019-01-08T20:49:21.144Z,63.00
2019-01-08T20:51:49.036Z,52.05
2019-01-08T20:54:20.152Z,55.88
2019-01-08T20:56:48.000Z,58.48
2019-01-08T20:59:16.350Z,48.75
2019-01-08T21:01:49.782Z,56.90
2019-01-08T21:04:20.271Z,69.30
2019-01-08T21:06:48.208Z,49.93
2019-01-08T21:09:15.878Z,55.10
2019-01-08T21:11:43.747Z,55.78
2019-01-08T21:14:12.036Z,57.85
2019-01-08T21:16:39.936Z,52.43
2019-01-08T21:19:07.917Z,58.05
2019-01-08T21:21:35.702Z,46.28
2019-01-08T21:24:03.715Z,65.83
2019-01-08T21:26:32.599Z,61.63
2019-01-08T21:29:00.120Z,58.68
2019-01-08T21:31:27.900Z,59.93
2019-01-08T21:33:57.161Z,55.43
2019-01-08T21:36:24.928Z,55.35
2019-01-08T21:38:55.785Z,49.83
2019-01-08T21:41:23.560Z,54.63
2019-01-08T21:43:52.448Z,51.88
2019-01-08T21:46:20.167Z,48.08
2019-01-08T21:48:48.035Z,47.10
2019-01-08T21:51:15.824Z,53.25
2019-01-08T21:53:43.741Z,47.45
2019-01-08T21:56:11.262Z,50.08
2019-01-08T21:58:39.096Z,53.30
2019-01-08T22:01:07.233Z,50.85
2019-01-08T22:03:34.809Z,53.92
2019-01-08T22:06:02.793Z,63.30
2019-01-08T22:08:30.531Z,58.15
2019-01-08T22:10:58.347Z,45.63
2019-01-08T22:13:29.462Z,52.95
2019-01-08T22:15:57.197Z,60.65
2019-01-08T22:18:24.838Z,54.85
2019-01-08T22:20:52.673Z,59.15
2019-01-08T22:23:20.306Z,50.95
2019-01-08T22:25:49.270Z,61.88
2019-01-08T22:28:16.833Z,55.65
2019-01-08T22:30:45.830Z,42.70
2019-01-08T22:33:13.638Z,54.98
2019-01-08T22:35:42.820Z,41.50
2019-01-08T22:38:10.575Z,40.83
2019-01-08T22:40:38.117Z,36.55
2019-01-08T22:43:05.903Z,37.93
2019-01-08T22:45:33.791Z,40.20
2019-01-08T22:48:01.649Z,45.95
2019-01-08T22:50:29.616Z,40.17
2019-01-08T22:52:57.368Z,38.50
2019-01-08T22:55:25.366Z,43.02
2019-01-08T22:57:54.301Z,48.78
2019-01-08T23:00:40.585Z,42.30
2019-01-08T23:03:09.124Z,50.15
2019-01-08T23:05:38.155Z,46.08
2019-01-08T23:08:05.794Z,48.17
2019-01-08T23:10:33.424Z,46.23
2019-01-08T23:13:01.345Z,43.23
2019-01-08T23:15:29.438Z,54.18
2019-01-08T23:17:57.456Z,48.13
2019-01-08T23:20:26.199Z,50.58
2019-01-08T23:22:53.990Z,52.65
2019-01-08T23:25:21.781Z,57.43
2019-01-08T23:27:49.600Z,64.03
2019-01-08T23:30:18.265Z,79.65
2019-01-08T23:32:46.301Z,57.65
2019-01-08T23:35:19.427Z,61.13
2019-01-08T23:37:44.001Z,66.82
2019-01-08T23:40:12.322Z,72.82
2019-01-08T23:42:40.284Z,67.20
2019-01-08T23:45:08.348Z,53.83
2019-01-08T23:47:36.273Z,62.35
2019-01-08T23:50:05.038Z,57.05
2019-01-08T23:52:42.826Z,53.63
2019-01-08T23:55:11.142Z,50.43
2019-01-08T23:57:40.466Z,58.80
